Mound City, South Dakota
Current Conditions -  °F | °C
As of 7:16 PM on Tuesday 25 Nov 2014 (Local Time) from KMBG Reporting Station
Overcast Overcast  
Wind Chill: 31°   Ceiling: 2800
Heat Index: 35°   Visibility: 10mi
Dew Point: 33°   Wind: 5mph
Humidity: 92%   Direction: 300°WNW
Pressure: 29.72"   Gusts: NA
Location:  45.73°N, 100.07°W
Report Text: KMBG 260116Z AUTO 30004KT 10SM BKN028 OVC034 02/01 A2972 RMK AO2 T00170006
Loading
Personal Weather Stations






























Interactive Weather Map New forecast layout! Learn more

10-Day Weather Forecast

Advertisements
Track Severe Weather on mobile